sensor_id;sensor_type;location;lat;lon;timestamp;P1;durP1;ratioP1;P2;durP2;ratioP2
21860;SDS011;11095;48.066;8.540;2022-09-21T00:02:13;4.90;;;3.50;;
21860;SDS011;11095;48.066;8.540;2022-09-21T00:04:39;4.18;;;3.13;;
21860;SDS011;11095;48.066;8.540;2022-09-21T00:07:04;4.60;;;3.50;;
21860;SDS011;11095;48.066;8.540;2022-09-21T00:09:30;4.20;;;3.35;;
21860;SDS011;11095;48.066;8.540;2022-09-21T00:11:56;5.28;;;4.20;;
21860;SDS011;11095;48.066;8.540;2022-09-21T00:14:21;6.15;;;3.92;;
21860;SDS011;11095;48.066;8.540;2022-09-21T00:16:47;5.00;;;3.70;;
21860;SDS011;11095;48.066;8.540;2022-09-21T00:19:12;6.75;;;3.75;;
21860;SDS011;11095;48.066;8.540;2022-09-21T00:21:40;5.35;;;3.30;;
21860;SDS011;11095;48.066;8.540;2022-09-21T00:24:06;5.13;;;3.75;;
21860;SDS011;11095;48.066;8.540;2022-09-21T00:26:32;6.10;;;3.65;;
21860;SDS011;11095;48.066;8.540;2022-09-21T00:28:59;6.07;;;3.70;;
21860;SDS011;11095;48.066;8.540;2022-09-21T00:31:26;4.55;;;3.47;;
21860;SDS011;11095;48.066;8.540;2022-09-21T00:33:52;6.32;;;3.55;;
21860;SDS011;11095;48.066;8.540;2022-09-21T00:36:20;5.25;;;3.50;;
21860;SDS011;11095;48.066;8.540;2022-09-21T00:38:51;7.25;;;3.88;;
21860;SDS011;11095;48.066;8.540;2022-09-21T00:41:18;4.30;;;3.38;;
21860;SDS011;11095;48.066;8.540;2022-09-21T00:43:45;5.53;;;3.25;;
21860;SDS011;11095;48.066;8.540;2022-09-21T00:46:34;5.30;;;3.47;;
21860;SDS011;11095;48.066;8.540;2022-09-21T00:49:03;6.95;;;3.42;;
21860;SDS011;11095;48.066;8.540;2022-09-21T00:51:29;4.10;;;3.47;;
21860;SDS011;11095;48.066;8.540;2022-09-21T00:53:57;4.40;;;3.10;;
21860;SDS011;11095;48.066;8.540;2022-09-21T00:56:27;3.90;;;3.25;;
21860;SDS011;11095;48.066;8.540;2022-09-21T00:58:53;4.65;;;3.42;;
21860;SDS011;11095;48.066;8.540;2022-09-21T01:01:20;5.25;;;3.53;;
21860;SDS011;11095;48.066;8.540;2022-09-21T01:03:46;4.95;;;3.30;;
21860;SDS011;11095;48.066;8.540;2022-09-21T01:06:12;4.60;;;3.65;;
21860;SDS011;11095;48.066;8.540;2022-09-21T01:08:39;4.45;;;3.10;;
21860;SDS011;11095;48.066;8.540;2022-09-21T01:13:54;4.30;;;3.03;;
21860;SDS011;11095;48.066;8.540;2022-09-21T01:19:18;5.03;;;3.20;;
21860;SDS011;11095;48.066;8.540;2022-09-21T01:25:07;5.53;;;3.47;;
21860;SDS011;11095;48.066;8.540;2022-09-21T01:27:41;4.60;;;3.40;;
21860;SDS011;11095;48.066;8.540;2022-09-21T01:30:18;5.35;;;3.85;;
21860;SDS011;11095;48.066;8.540;2022-09-21T01:32:51;5.63;;;3.92;;
21860;SDS011;11095;48.066;8.540;2022-09-21T01:35:45;5.93;;;4.03;;
21860;SDS011;11095;48.066;8.540;2022-09-21T01:38:36;5.38;;;4.00;;
21860;SDS011;11095;48.066;8.540;2022-09-21T01:41:07;7.47;;;4.28;;
21860;SDS011;11095;48.066;8.540;2022-09-21T01:43:37;5.77;;;4.30;;
21860;SDS011;11095;48.066;8.540;2022-09-21T01:46:10;12.30;;;8.25;;
21860;SDS011;11095;48.066;8.540;2022-09-21T01:48:41;11.70;;;7.72;;
21860;SDS011;11095;48.066;8.540;2022-09-21T01:51:10;10.43;;;6.80;;
21860;SDS011;11095;48.066;8.540;2022-09-21T01:53:43;9.40;;;6.33;;
21860;SDS011;11095;48.066;8.540;2022-09-21T01:56:21;9.48;;;6.20;;
21860;SDS011;11095;48.066;8.540;2022-09-21T01:59:08;9.50;;;5.68;;
21860;SDS011;11095;48.066;8.540;2022-09-21T02:01:42;6.38;;;4.65;;
21860;SDS011;11095;48.066;8.540;2022-09-21T02:04:13;8.18;;;5.30;;
21860;SDS011;11095;48.066;8.540;2022-09-21T02:06:39;7.20;;;5.40;;
21860;SDS011;11095;48.066;8.540;2022-09-21T02:09:09;7.85;;;5.18;;
21860;SDS011;11095;48.066;8.540;2022-09-21T02:11:35;6.38;;;4.57;;
21860;SDS011;11095;48.066;8.540;2022-09-21T02:14:06;5.85;;;4.25;;
21860;SDS011;11095;48.066;8.540;2022-09-21T02:16:38;5.63;;;3.80;;
21860;SDS011;11095;48.066;8.540;2022-09-21T02:19:17;4.95;;;3.92;;
21860;SDS011;11095;48.066;8.540;2022-09-21T02:22:10;5.78;;;4.00;;
21860;SDS011;11095;48.066;8.540;2022-09-21T02:24:47;5.72;;;4.13;;
21860;SDS011;11095;48.066;8.540;2022-09-21T02:30:06;6.63;;;4.30;;
21860;SDS011;11095;48.066;8.540;2022-09-21T02:38:40;6.45;;;4.20;;
21860;SDS011;11095;48.066;8.540;2022-09-21T02:44:06;5.57;;;4.22;;
21860;SDS011;11095;48.066;8.540;2022-09-21T02:47:02;5.93;;;4.13;;
21860;SDS011;11095;48.066;8.540;2022-09-21T02:49:37;6.75;;;4.22;;
21860;SDS011;11095;48.066;8.540;2022-09-21T02:52:07;7.63;;;4.55;;
21860;SDS011;11095;48.066;8.540;2022-09-21T02:54:36;5.93;;;4.13;;
21860;SDS011;11095;48.066;8.540;2022-09-21T02:57:05;5.93;;;4.25;;
21860;SDS011;11095;48.066;8.540;2022-09-21T02:59:32;5.15;;;4.28;;
21860;SDS011;11095;48.066;8.540;2022-09-21T03:01:58;6.65;;;4.40;;
21860;SDS011;11095;48.066;8.540;2022-09-21T03:04:23;5.35;;;4.25;;
21860;SDS011;11095;48.066;8.540;2022-09-21T03:06:51;5.55;;;4.03;;
21860;SDS011;11095;48.066;8.540;2022-09-21T03:09:17;6.25;;;4.22;;
21860;SDS011;11095;48.066;8.540;2022-09-21T03:11:45;6.40;;;4.32;;
21860;SDS011;11095;48.066;8.540;2022-09-21T03:14:10;5.65;;;4.63;;
21860;SDS011;11095;48.066;8.540;2022-09-21T03:16:36;7.13;;;4.20;;
21860;SDS011;11095;48.066;8.540;2022-09-21T03:19:03;6.28;;;4.07;;
21860;SDS011;11095;48.066;8.540;2022-09-21T03:21:29;5.35;;;4.13;;
21860;SDS011;11095;48.066;8.540;2022-09-21T03:23:55;6.97;;;4.32;;
21860;SDS011;11095;48.066;8.540;2022-09-21T03:26:21;5.07;;;3.97;;
21860;SDS011;11095;48.066;8.540;2022-09-21T03:28:47;7.03;;;4.28;;
21860;SDS011;11095;48.066;8.540;2022-09-21T03:31:14;5.72;;;4.28;;
21860;SDS011;11095;48.066;8.540;2022-09-21T03:33:39;7.57;;;4.63;;
21860;SDS011;11095;48.066;8.540;2022-09-21T03:36:06;5.45;;;4.35;;
21860;SDS011;11095;48.066;8.540;2022-09-21T03:38:32;5.38;;;4.10;;
21860;SDS011;11095;48.066;8.540;2022-09-21T03:40:58;8.43;;;4.90;;
21860;SDS011;11095;48.066;8.540;2022-09-21T03:43:24;6.85;;;4.25;;
21860;SDS011;11095;48.066;8.540;2022-09-21T03:45:50;5.57;;;4.07;;
21860;SDS011;11095;48.066;8.540;2022-09-21T03:48:16;5.45;;;4.45;;
21860;SDS011;11095;48.066;8.540;2022-09-21T03:50:42;8.77;;;6.13;;
21860;SDS011;11095;48.066;8.540;2022-09-21T03:53:07;6.90;;;5.50;;
21860;SDS011;11095;48.066;8.540;2022-09-21T03:55:34;7.40;;;5.93;;
21860;SDS011;11095;48.066;8.540;2022-09-21T03:58:00;9.40;;;6.53;;
21860;SDS011;11095;48.066;8.540;2022-09-21T04:00:26;7.57;;;5.95;;
21860;SDS011;11095;48.066;8.540;2022-09-21T04:02:52;7.70;;;5.35;;
21860;SDS011;11095;48.066;8.540;2022-09-21T04:05:18;7.10;;;4.78;;
21860;SDS011;11095;48.066;8.540;2022-09-21T04:07:45;6.15;;;4.80;;
21860;SDS011;11095;48.066;8.540;2022-09-21T04:10:11;7.22;;;5.05;;
21860;SDS011;11095;48.066;8.540;2022-09-21T04:12:43;5.95;;;4.60;;
21860;SDS011;11095;48.066;8.540;2022-09-21T04:15:10;7.72;;;5.28;;
21860;SDS011;11095;48.066;8.540;2022-09-21T04:17:43;7.50;;;5.03;;
21860;SDS011;11095;48.066;8.540;2022-09-21T04:20:15;6.50;;;4.72;;
21860;SDS011;11095;48.066;8.540;2022-09-21T04:22:40;7.75;;;5.63;;
21860;SDS011;11095;48.066;8.540;2022-09-21T04:25:06;11.57;;;6.90;;
21860;SDS011;11095;48.066;8.540;2022-09-21T04:27:32;13.65;;;8.27;;
21860;SDS011;11095;48.066;8.540;2022-09-21T04:29:58;16.13;;;9.23;;
21860;SDS011;11095;48.066;8.540;2022-09-21T04:32:24;17.77;;;10.10;;
21860;SDS011;11095;48.066;8.540;2022-09-21T04:34:50;18.35;;;10.20;;
21860;SDS011;11095;48.066;8.540;2022-09-21T04:37:16;16.48;;;8.95;;
21860;SDS011;11095;48.066;8.540;2022-09-21T04:39:41;18.35;;;10.70;;
21860;SDS011;11095;48.066;8.540;2022-09-21T04:42:07;11.63;;;7.28;;
21860;SDS011;11095;48.066;8.540;2022-09-21T04:44:33;9.43;;;6.32;;
21860;SDS011;11095;48.066;8.540;2022-09-21T04:46:59;14.55;;;8.75;;
21860;SDS011;11095;48.066;8.540;2022-09-21T04:49:25;11.30;;;7.53;;
21860;SDS011;11095;48.066;8.540;2022-09-21T04:51:50;10.80;;;6.97;;
21860;SDS011;11095;48.066;8.540;2022-09-21T04:54:16;15.35;;;8.38;;
21860;SDS011;11095;48.066;8.540;2022-09-21T04:56:42;12.77;;;7.57;;
21860;SDS011;11095;48.066;8.540;2022-09-21T04:59:07;12.65;;;7.75;;
21860;SDS011;11095;48.066;8.540;2022-09-21T05:01:33;11.98;;;7.13;;
21860;SDS011;11095;48.066;8.540;2022-09-21T05:03:59;11.25;;;7.22;;
21860;SDS011;11095;48.066;8.540;2022-09-21T05:06:29;12.52;;;7.68;;
21860;SDS011;11095;48.066;8.540;2022-09-21T05:08:57;9.15;;;6.40;;
21860;SDS011;11095;48.066;8.540;2022-09-21T05:11:41;10.68;;;6.90;;
21860;SDS011;11095;48.066;8.540;2022-09-21T05:14:07;9.70;;;6.57;;
21860;SDS011;11095;48.066;8.540;2022-09-21T05:16:34;9.65;;;6.43;;
21860;SDS011;11095;48.066;8.540;2022-09-21T05:18:59;10.45;;;6.50;;
21860;SDS011;11095;48.066;8.540;2022-09-21T05:21:25;9.68;;;6.18;;
21860;SDS011;11095;48.066;8.540;2022-09-21T05:23:50;11.82;;;6.45;;
21860;SDS011;11095;48.066;8.540;2022-09-21T05:26:16;10.35;;;6.20;;
21860;SDS011;11095;48.066;8.540;2022-09-21T05:28:43;12.07;;;6.95;;
21860;SDS011;11095;48.066;8.540;2022-09-21T05:36:53;12.10;;;7.45;;
21860;SDS011;11095;48.066;8.540;2022-09-21T05:39:28;11.32;;;6.43;;
21860;SDS011;11095;48.066;8.540;2022-09-21T05:41:54;12.05;;;6.50;;
21860;SDS011;11095;48.066;8.540;2022-09-21T05:44:20;9.35;;;5.88;;
21860;SDS011;11095;48.066;8.540;2022-09-21T05:49:29;14.32;;;8.60;;
21860;SDS011;11095;48.066;8.540;2022-09-21T05:52:21;11.93;;;8.85;;
21860;SDS011;11095;48.066;8.540;2022-09-21T06:03:12;8.68;;;5.55;;
21860;SDS011;11095;48.066;8.540;2022-09-21T06:06:02;11.27;;;5.53;;
21860;SDS011;11095;48.066;8.540;2022-09-21T06:08:28;14.35;;;6.32;;
21860;SDS011;11095;48.066;8.540;2022-09-21T06:10:54;11.60;;;5.78;;
21860;SDS011;11095;48.066;8.540;2022-09-21T06:13:20;12.05;;;6.75;;
21860;SDS011;11095;48.066;8.540;2022-09-21T06:15:45;9.32;;;5.57;;
21860;SDS011;11095;48.066;8.540;2022-09-21T06:18:11;8.15;;;5.32;;
21860;SDS011;11095;48.066;8.540;2022-09-21T06:20:37;12.25;;;6.00;;
21860;SDS011;11095;48.066;8.540;2022-09-21T06:23:04;12.23;;;6.72;;
21860;SDS011;11095;48.066;8.540;2022-09-21T06:25:34;12.15;;;6.80;;
21860;SDS011;11095;48.066;8.540;2022-09-21T06:28:03;12.18;;;6.75;;
21860;SDS011;11095;48.066;8.540;2022-09-21T06:30:34;12.18;;;7.22;;
21860;SDS011;11095;48.066;8.540;2022-09-21T06:33:00;11.55;;;7.18;;
21860;SDS011;11095;48.066;8.540;2022-09-21T06:35:27;13.40;;;7.60;;
21860;SDS011;11095;48.066;8.540;2022-09-21T06:38:01;13.90;;;8.40;;
21860;SDS011;11095;48.066;8.540;2022-09-21T06:40:29;15.82;;;8.63;;
21860;SDS011;11095;48.066;8.540;2022-09-21T06:42:56;18.88;;;8.23;;
21860;SDS011;11095;48.066;8.540;2022-09-21T06:47:51;10.75;;;7.10;;
21860;SDS011;11095;48.066;8.540;2022-09-21T06:50:17;10.07;;;6.43;;
21860;SDS011;11095;48.066;8.540;2022-09-21T06:52:43;14.02;;;7.43;;
21860;SDS011;11095;48.066;8.540;2022-09-21T06:55:09;13.27;;;8.38;;
21860;SDS011;11095;48.066;8.540;2022-09-21T06:57:35;17.30;;;8.30;;
21860;SDS011;11095;48.066;8.540;2022-09-21T07:00:04;13.07;;;8.05;;
21860;SDS011;11095;48.066;8.540;2022-09-21T07:02:31;11.93;;;7.93;;
21860;SDS011;11095;48.066;8.540;2022-09-21T07:04:57;9.18;;;6.43;;
21860;SDS011;11095;48.066;8.540;2022-09-21T07:07:23;11.43;;;6.75;;
21860;SDS011;11095;48.066;8.540;2022-09-21T07:09:49;13.30;;;6.97;;
21860;SDS011;11095;48.066;8.540;2022-09-21T07:12:15;12.52;;;7.18;;
21860;SDS011;11095;48.066;8.540;2022-09-21T07:14:41;11.88;;;6.65;;
21860;SDS011;11095;48.066;8.540;2022-09-21T07:17:10;7.93;;;5.80;;
21860;SDS011;11095;48.066;8.540;2022-09-21T07:19:36;10.32;;;6.75;;
21860;SDS011;11095;48.066;8.540;2022-09-21T07:22:01;7.90;;;5.28;;
21860;SDS011;11095;48.066;8.540;2022-09-21T07:24:27;7.55;;;5.28;;
21860;SDS011;11095;48.066;8.540;2022-09-21T07:26:53;5.72;;;4.63;;
21860;SDS011;11095;48.066;8.540;2022-09-21T07:29:18;4.95;;;3.55;;
21860;SDS011;11095;48.066;8.540;2022-09-21T07:31:44;5.07;;;4.03;;
21860;SDS011;11095;48.066;8.540;2022-09-21T07:34:10;5.95;;;3.67;;
21860;SDS011;11095;48.066;8.540;2022-09-21T07:36:35;4.95;;;3.40;;
21860;SDS011;11095;48.066;8.540;2022-09-21T07:39:01;5.40;;;3.15;;
21860;SDS011;11095;48.066;8.540;2022-09-21T07:41:27;4.40;;;3.20;;
21860;SDS011;11095;48.066;8.540;2022-09-21T07:43:53;5.63;;;3.58;;
21860;SDS011;11095;48.066;8.540;2022-09-21T07:46:19;4.25;;;3.10;;
21860;SDS011;11095;48.066;8.540;2022-09-21T07:48:44;5.30;;;3.17;;
21860;SDS011;11095;48.066;8.540;2022-09-21T07:51:11;6.53;;;3.30;;
21860;SDS011;11095;48.066;8.540;2022-09-21T07:53:38;4.45;;;3.25;;
21860;SDS011;11095;48.066;8.540;2022-09-21T07:56:07;5.15;;;3.10;;
21860;SDS011;11095;48.066;8.540;2022-09-21T07:58:35;4.45;;;2.60;;
21860;SDS011;11095;48.066;8.540;2022-09-21T08:01:20;2.90;;;2.30;;
21860;SDS011;11095;48.066;8.540;2022-09-21T08:03:52;4.43;;;2.58;;
21860;SDS011;11095;48.066;8.540;2022-09-21T08:06:19;3.67;;;2.03;;
21860;SDS011;11095;48.066;8.540;2022-09-21T08:08:46;3.97;;;2.60;;
21860;SDS011;11095;48.066;8.540;2022-09-21T08:11:13;4.65;;;2.35;;
21860;SDS011;11095;48.066;8.540;2022-09-21T08:13:40;3.78;;;2.22;;
21860;SDS011;11095;48.066;8.540;2022-09-21T08:16:06;5.97;;;2.50;;
21860;SDS011;11095;48.066;8.540;2022-09-21T08:18:34;3.97;;;2.00;;
21860;SDS011;11095;48.066;8.540;2022-09-21T08:21:02;3.75;;;1.85;;
21860;SDS011;11095;48.066;8.540;2022-09-21T08:23:27;4.28;;;1.90;;
21860;SDS011;11095;48.066;8.540;2022-09-21T08:25:58;3.58;;;2.40;;
21860;SDS011;11095;48.066;8.540;2022-09-21T08:28:25;4.18;;;2.13;;
21860;SDS011;11095;48.066;8.540;2022-09-21T08:30:51;4.32;;;1.80;;
21860;SDS011;11095;48.066;8.540;2022-09-21T08:33:17;3.45;;;2.00;;
21860;SDS011;11095;48.066;8.540;2022-09-21T08:35:42;2.42;;;1.70;;
21860;SDS011;11095;48.066;8.540;2022-09-21T08:38:16;2.70;;;1.98;;
21860;SDS011;11095;48.066;8.540;2022-09-21T08:40:42;1.95;;;1.75;;
21860;SDS011;11095;48.066;8.540;2022-09-21T08:43:09;3.47;;;1.98;;
21860;SDS011;11095;48.066;8.540;2022-09-21T08:45:41;3.38;;;2.35;;
21860;SDS011;11095;48.066;8.540;2022-09-21T08:48:42;4.20;;;2.20;;
21860;SDS011;11095;48.066;8.540;2022-09-21T08:51:05;5.43;;;2.42;;
21860;SDS011;11095;48.066;8.540;2022-09-21T08:53:37;4.70;;;2.28;;
21860;SDS011;11095;48.066;8.540;2022-09-21T08:56:11;3.38;;;2.20;;
21860;SDS011;11095;48.066;8.540;2022-09-21T08:58:38;5.50;;;2.35;;
21860;SDS011;11095;48.066;8.540;2022-09-21T09:06:44;4.38;;;2.50;;
21860;SDS011;11095;48.066;8.540;2022-09-21T09:14:37;4.07;;;2.53;;
21860;SDS011;11095;48.066;8.540;2022-09-21T09:19:47;6.07;;;2.72;;
21860;SDS011;11095;48.066;8.540;2022-09-21T09:22:35;3.67;;;2.60;;
21860;SDS011;11095;48.066;8.540;2022-09-21T09:25:06;2.97;;;2.47;;
21860;SDS011;11095;48.066;8.540;2022-09-21T09:27:45;3.70;;;2.30;;
21860;SDS011;11095;48.066;8.540;2022-09-21T09:30:24;4.65;;;2.22;;
21860;SDS011;11095;48.066;8.540;2022-09-21T09:35:26;2.83;;;2.05;;
21860;SDS011;11095;48.066;8.540;2022-09-21T09:40:59;3.55;;;2.08;;
21860;SDS011;11095;48.066;8.540;2022-09-21T09:52:06;2.90;;;1.98;;
21860;SDS011;11095;48.066;8.540;2022-09-21T09:54:34;3.80;;;1.80;;
21860;SDS011;11095;48.066;8.540;2022-09-21T09:57:02;3.65;;;1.75;;
21860;SDS011;11095;48.066;8.540;2022-09-21T09:59:31;2.50;;;2.10;;
21860;SDS011;11095;48.066;8.540;2022-09-21T10:02:05;3.33;;;2.00;;
21860;SDS011;11095;48.066;8.540;2022-09-21T10:04:53;2.80;;;1.90;;
21860;SDS011;11095;48.066;8.540;2022-09-21T10:07:36;3.22;;;1.70;;
21860;SDS011;11095;48.066;8.540;2022-09-21T10:12:47;4.13;;;1.75;;
21860;SDS011;11095;48.066;8.540;2022-09-21T10:15:18;3.05;;;1.85;;
21860;SDS011;11095;48.066;8.540;2022-09-21T10:17:47;2.92;;;1.80;;
21860;SDS011;11095;48.066;8.540;2022-09-21T10:20:21;2.72;;;1.90;;
21860;SDS011;11095;48.066;8.540;2022-09-21T10:22:47;3.20;;;1.60;;
21860;SDS011;11095;48.066;8.540;2022-09-21T10:25:20;3.00;;;1.40;;
21860;SDS011;11095;48.066;8.540;2022-09-21T10:27:46;1.92;;;1.15;;
21860;SDS011;11095;48.066;8.540;2022-09-21T10:30:30;1.80;;;0.95;;
21860;SDS011;11095;48.066;8.540;2022-09-21T10:32:58;2.45;;;0.90;;
21860;SDS011;11095;48.066;8.540;2022-09-21T10:35:25;3.22;;;1.00;;
21860;SDS011;11095;48.066;8.540;2022-09-21T10:40:40;5.03;;;1.20;;
21860;SDS011;11095;48.066;8.540;2022-09-21T10:43:20;1.50;;;0.90;;
21860;SDS011;11095;48.066;8.540;2022-09-21T10:45:55;1.25;;;0.80;;
21860;SDS011;11095;48.066;8.540;2022-09-21T10:48:22;1.92;;;0.95;;
21860;SDS011;11095;48.066;8.540;2022-09-21T10:50:50;1.42;;;0.80;;
21860;SDS011;11095;48.066;8.540;2022-09-21T10:53:22;1.33;;;0.68;;
21860;SDS011;11095;48.066;8.540;2022-09-21T10:58:30;2.65;;;0.80;;
21860;SDS011;11095;48.066;8.540;2022-09-21T11:01:10;1.88;;;0.80;;
21860;SDS011;11095;48.066;8.540;2022-09-21T11:03:50;1.83;;;0.68;;
21860;SDS011;11095;48.066;8.540;2022-09-21T11:06:28;2.55;;;0.77;;
21860;SDS011;11095;48.066;8.540;2022-09-21T11:09:08;2.22;;;0.60;;
21860;SDS011;11095;48.066;8.540;2022-09-21T11:16:40;1.83;;;0.70;;
21860;SDS011;11095;48.066;8.540;2022-09-21T11:21:54;2.25;;;0.50;;
21860;SDS011;11095;48.066;8.540;2022-09-21T11:24:31;1.45;;;0.70;;
21860;SDS011;11095;48.066;8.540;2022-09-21T11:27:34;1.63;;;0.80;;
21860;SDS011;11095;48.066;8.540;2022-09-21T11:30:11;2.05;;;1.00;;
21860;SDS011;11095;48.066;8.540;2022-09-21T11:45:54;2.03;;;0.52;;
21860;SDS011;11095;48.066;8.540;2022-09-21T11:59:31;1.23;;;0.60;;
21860;SDS011;11095;48.066;8.540;2022-09-21T12:05:10;0.82;;;0.60;;
21860;SDS011;11095;48.066;8.540;2022-09-21T12:17:02;1.55;;;0.50;;
21860;SDS011;11095;48.066;8.540;2022-09-21T12:19:45;0.60;;;0.43;;
21860;SDS011;11095;48.066;8.540;2022-09-21T12:22:25;0.57;;;0.50;;
21860;SDS011;11095;48.066;8.540;2022-09-21T12:25:02;1.38;;;0.50;;
21860;SDS011;11095;48.066;8.540;2022-09-21T12:27:48;1.35;;;0.60;;
21860;SDS011;11095;48.066;8.540;2022-09-21T12:30:21;1.08;;;0.50;;
21860;SDS011;11095;48.066;8.540;2022-09-21T12:32:56;0.50;;;0.50;;
21860;SDS011;11095;48.066;8.540;2022-09-21T12:43:03;0.40;;;0.40;;
21860;SDS011;11095;48.066;8.540;2022-09-21T12:45:34;0.70;;;0.50;;
21860;SDS011;11095;48.066;8.540;2022-09-21T12:53:45;0.68;;;0.50;;
21860;SDS011;11095;48.066;8.540;2022-09-21T13:02:11;0.40;;;0.40;;
21860;SDS011;11095;48.066;8.540;2022-09-21T13:04:50;0.63;;;0.35;;
21860;SDS011;11095;48.066;8.540;2022-09-21T13:13:21;0.75;;;0.50;;
21860;SDS011;11095;48.066;8.540;2022-09-21T13:16:13;1.10;;;0.50;;
21860;SDS011;11095;48.066;8.540;2022-09-21T13:18:54;1.20;;;0.50;;
21860;SDS011;11095;48.066;8.540;2022-09-21T13:21:23;1.90;;;0.60;;
21860;SDS011;11095;48.066;8.540;2022-09-21T13:24:01;2.13;;;0.65;;
21860;SDS011;11095;48.066;8.540;2022-09-21T13:40:29;1.17;;;0.57;;
21860;SDS011;11095;48.066;8.540;2022-09-21T13:44:58;1.73;;;0.60;;
21860;SDS011;11095;48.066;8.540;2022-09-21T13:49:58;1.92;;;0.70;;
21860;SDS011;11095;48.066;8.540;2022-09-21T13:52:46;1.50;;;0.50;;
21860;SDS011;11095;48.066;8.540;2022-09-21T13:57:59;1.52;;;0.80;;
21860;SDS011;11095;48.066;8.540;2022-09-21T14:00:38;0.65;;;0.50;;
21860;SDS011;11095;48.066;8.540;2022-09-21T14:03:26;0.85;;;0.50;;
21860;SDS011;11095;48.066;8.540;2022-09-21T14:06:06;1.55;;;0.77;;
21860;SDS011;11095;48.066;8.540;2022-09-21T14:08:44;0.82;;;0.60;;
21860;SDS011;11095;48.066;8.540;2022-09-21T14:11:30;1.60;;;0.70;;
21860;SDS011;11095;48.066;8.540;2022-09-21T14:27:42;0.70;;;0.50;;
21860;SDS011;11095;48.066;8.540;2022-09-21T14:30:23;1.48;;;0.50;;
21860;SDS011;11095;48.066;8.540;2022-09-21T14:35:24;1.30;;;0.50;;
21860;SDS011;11095;48.066;8.540;2022-09-21T14:37:55;0.93;;;0.50;;
21860;SDS011;11095;48.066;8.540;2022-09-21T14:40:27;0.70;;;0.50;;
21860;SDS011;11095;48.066;8.540;2022-09-21T14:43:06;1.13;;;0.70;;
21860;SDS011;11095;48.066;8.540;2022-09-21T14:48:41;0.60;;;0.60;;
21860;SDS011;11095;48.066;8.540;2022-09-21T14:51:35;1.42;;;0.50;;
21860;SDS011;11095;48.066;8.540;2022-09-21T15:02:45;1.20;;;0.52;;
21860;SDS011;11095;48.066;8.540;2022-09-21T15:05:28;0.60;;;0.52;;
21860;SDS011;11095;48.066;8.540;2022-09-21T15:11:26;0.55;;;0.50;;
21860;SDS011;11095;48.066;8.540;2022-09-21T15:21:45;0.50;;;0.50;;
21860;SDS011;11095;48.066;8.540;2022-09-21T15:24:23;1.08;;;0.50;;
21860;SDS011;11095;48.066;8.540;2022-09-21T15:27:14;1.10;;;0.60;;
21860;SDS011;11095;48.066;8.540;2022-09-21T15:29:42;0.70;;;0.60;;
21860;SDS011;11095;48.066;8.540;2022-09-21T15:32:32;0.52;;;0.47;;
21860;SDS011;11095;48.066;8.540;2022-09-21T15:35:03;2.63;;;0.77;;
21860;SDS011;11095;48.066;8.540;2022-09-21T15:37:39;0.50;;;0.50;;
21860;SDS011;11095;48.066;8.540;2022-09-21T15:40:05;0.50;;;0.50;;
21860;SDS011;11095;48.066;8.540;2022-09-21T15:45:25;1.85;;;0.75;;
21860;SDS011;11095;48.066;8.540;2022-09-21T15:47:53;2.65;;;0.70;;
21860;SDS011;11095;48.066;8.540;2022-09-21T15:50:19;0.70;;;0.50;;
21860;SDS011;11095;48.066;8.540;2022-09-21T15:52:50;0.98;;;0.70;;
21860;SDS011;11095;48.066;8.540;2022-09-21T15:55:21;1.35;;;0.80;;
21860;SDS011;11095;48.066;8.540;2022-09-21T15:57:48;1.85;;;0.55;;
21860;SDS011;11095;48.066;8.540;2022-09-21T16:00:20;0.98;;;0.73;;
21860;SDS011;11095;48.066;8.540;2022-09-21T16:02:57;0.50;;;0.50;;
21860;SDS011;11095;48.066;8.540;2022-09-21T16:05:53;1.40;;;0.60;;
21860;SDS011;11095;48.066;8.540;2022-09-21T16:08:31;0.82;;;0.73;;
21860;SDS011;11095;48.066;8.540;2022-09-21T16:11:13;1.38;;;0.65;;
21860;SDS011;11095;48.066;8.540;2022-09-21T16:13:41;0.77;;;0.77;;
21860;SDS011;11095;48.066;8.540;2022-09-21T16:16:26;1.00;;;0.70;;
21860;SDS011;11095;48.066;8.540;2022-09-21T16:18:53;1.17;;;0.70;;
21860;SDS011;11095;48.066;8.540;2022-09-21T16:21:26;0.90;;;0.70;;
21860;SDS011;11095;48.066;8.540;2022-09-21T16:23:57;0.95;;;0.60;;
21860;SDS011;11095;48.066;8.540;2022-09-21T16:26:34;0.70;;;0.70;;
21860;SDS011;11095;48.066;8.540;2022-09-21T16:31:44;2.15;;;0.80;;
21860;SDS011;11095;48.066;8.540;2022-09-21T16:34:21;1.88;;;0.90;;
21860;SDS011;11095;48.066;8.540;2022-09-21T16:37:00;2.05;;;0.85;;
21860;SDS011;11095;48.066;8.540;2022-09-21T16:39:52;2.50;;;0.98;;
21860;SDS011;11095;48.066;8.540;2022-09-21T16:42:19;1.35;;;0.77;;
21860;SDS011;11095;48.066;8.540;2022-09-21T16:44:46;0.98;;;0.77;;
21860;SDS011;11095;48.066;8.540;2022-09-21T16:49:39;1.20;;;1.00;;
21860;SDS011;11095;48.066;8.540;2022-09-21T16:52:05;1.30;;;1.00;;
21860;SDS011;11095;48.066;8.540;2022-09-21T16:54:31;1.60;;;1.08;;
21860;SDS011;11095;48.066;8.540;2022-09-21T16:56:59;1.65;;;0.90;;
21860;SDS011;11095;48.066;8.540;2022-09-21T16:59:27;1.83;;;1.10;;
21860;SDS011;11095;48.066;8.540;2022-09-21T17:01:55;1.67;;;0.90;;
21860;SDS011;11095;48.066;8.540;2022-09-21T17:04:23;1.75;;;1.05;;
21860;SDS011;11095;48.066;8.540;2022-09-21T17:06:52;1.65;;;1.10;;
21860;SDS011;11095;48.066;8.540;2022-09-21T17:11:49;2.15;;;1.00;;
21860;SDS011;11095;48.066;8.540;2022-09-21T17:14:15;2.08;;;0.85;;
21860;SDS011;11095;48.066;8.540;2022-09-21T17:16:49;4.30;;;1.10;;
21860;SDS011;11095;48.066;8.540;2022-09-21T17:19:17;2.20;;;1.30;;
21860;SDS011;11095;48.066;8.540;2022-09-21T17:21:44;2.05;;;1.30;;
21860;SDS011;11095;48.066;8.540;2022-09-21T17:24:11;1.95;;;1.20;;
21860;SDS011;11095;48.066;8.540;2022-09-21T17:26:37;1.42;;;1.08;;
21860;SDS011;11095;48.066;8.540;2022-09-21T17:29:07;1.70;;;1.00;;
21860;SDS011;11095;48.066;8.540;2022-09-21T17:31:50;2.10;;;1.15;;
21860;SDS011;11095;48.066;8.540;2022-09-21T17:34:24;2.08;;;1.17;;
21860;SDS011;11095;48.066;8.540;2022-09-21T17:36:51;1.65;;;1.10;;
21860;SDS011;11095;48.066;8.540;2022-09-21T17:39:18;4.25;;;1.20;;
21860;SDS011;11095;48.066;8.540;2022-09-21T17:42:00;1.27;;;1.00;;
21860;SDS011;11095;48.066;8.540;2022-09-21T17:49:46;3.63;;;1.45;;
21860;SDS011;11095;48.066;8.540;2022-09-21T17:52:15;1.73;;;1.27;;
21860;SDS011;11095;48.066;8.540;2022-09-21T17:55:03;4.25;;;2.03;;
21860;SDS011;11095;48.066;8.540;2022-09-21T17:57:49;3.13;;;2.20;;
21860;SDS011;11095;48.066;8.540;2022-09-21T18:00:20;3.63;;;2.30;;
21860;SDS011;11095;48.066;8.540;2022-09-21T18:02:48;1.98;;;1.60;;
21860;SDS011;11095;48.066;8.540;2022-09-21T18:05:24;4.38;;;2.40;;
21860;SDS011;11095;48.066;8.540;2022-09-21T18:07:52;4.22;;;2.00;;
21860;SDS011;11095;48.066;8.540;2022-09-21T18:10:19;3.13;;;1.85;;
21860;SDS011;11095;48.066;8.540;2022-09-21T18:15:33;3.33;;;2.83;;
21860;SDS011;11095;48.066;8.540;2022-09-21T18:21:04;3.00;;;1.80;;
21860;SDS011;11095;48.066;8.540;2022-09-21T18:23:50;3.50;;;1.92;;
21860;SDS011;11095;48.066;8.540;2022-09-21T18:26:36;2.47;;;2.08;;
21860;SDS011;11095;48.066;8.540;2022-09-21T18:29:03;3.90;;;2.00;;
21860;SDS011;11095;48.066;8.540;2022-09-21T18:36:47;2.30;;;1.90;;
21860;SDS011;11095;48.066;8.540;2022-09-21T18:44:57;3.60;;;1.70;;
21860;SDS011;11095;48.066;8.540;2022-09-21T18:47:54;3.45;;;1.83;;
21860;SDS011;11095;48.066;8.540;2022-09-21T18:53:35;3.08;;;2.00;;
21860;SDS011;11095;48.066;8.540;2022-09-21T18:58:38;3.78;;;2.20;;
21860;SDS011;11095;48.066;8.540;2022-09-21T19:01:04;3.15;;;2.17;;
21860;SDS011;11095;48.066;8.540;2022-09-21T19:03:30;4.50;;;2.08;;
21860;SDS011;11095;48.066;8.540;2022-09-21T19:22:17;5.50;;;1.50;;
21860;SDS011;11095;48.066;8.540;2022-09-21T19:27:37;6.10;;;1.92;;
21860;SDS011;11095;48.066;8.540;2022-09-21T19:35:11;7.90;;;2.05;;
21860;SDS011;11095;48.066;8.540;2022-09-21T19:37:40;3.88;;;1.70;;